Hlavní strana
METAR-TAF:

METAR-TAF

Letiště :

Semej, Kazachstán

zeměpisná šířka: 50-21-05N, zeměpisná délka: 080-14-04E, výška: 232 m

Aktuální stav počasí

Zpráva byla vytvořena před 27 minutami, v 12:30 UTC
Severovýchodní vítr 4 kt, proměnlivý mezi severoseverovýchodním a východním
Teplota 13°C
Vlhkost vzduchu 24%
Tlak 1017 hPa
Viditelnost 10 km a více
Žádná oblačnost pod 1500 m, nevyskytují se cumulonimby.

METAR: UASS 231230Z 05002MPS 020V090 CAVOK 13/M07 Q1017 R26/0///60 NOSIG RMK QFE745/0993

Čas: 18:57 (12:57 UTC)

Předpověď počasí

Zpráva byla vytvořena před 1 hodinou a 44 minutami, v 11:13 UTC
Předpověď platná od 23 v 12 UTC do 23 v 21 UTC
vítr z různých směrů 4 kt
Viditelnost 10 km a více
Polojasno ve výšce 3000 ft
Polojasno ve výšce 10000 ft
Dočasný
od 23 v 12 UTC do 23 v 18 UTC
Jižní vítr 12 kt

TAF: UASS 231113Z 2312/2321 VRB02MPS 9999 SCT030 SCT100 TEMPO 2312/2318 17006MPS

Stav a předpovědi počasí z více než 4 000 letišť (zprávy METAR a TAF).

Červené a žluté tečky na mapě představují dostupné meteorologické stanice.

Když kurzor umístíte na tečku, zobrazí se název stanice.

Pak kliknutím zobrazíte stav a předpověď počasí.

Chcete-li změnit mapu, kliknutím na zelené tlačítko se znaménkem +mapu přiblížíte, kliknutím na zelené tlačítko se znaménkem – mapu oddálíte a kliknutím na zelené šipky přejdete na sousední mapy.


METAR-TAF: